sensor_id;sensor_type;location;lat;lon;timestamp;pressure;altitude;pressure_sealevel;temperature;humidity
60061;BME280;45933;51.336;12.612;2023-03-01T00:01:47;101306.59;;;1.09;49.27
60061;BME280;45933;51.336;12.612;2023-03-01T00:04:12;101300.59;;;1.09;48.82
60061;BME280;45933;51.336;12.612;2023-03-01T00:06:38;101303.97;;;1.08;48.98
60061;BME280;45933;51.336;12.612;2023-03-01T00:09:04;101306.53;;;1.08;49.20
60061;BME280;45933;51.336;12.612;2023-03-01T00:11:31;101296.19;;;1.06;49.04
60061;BME280;45933;51.336;12.612;2023-03-01T00:13:58;101295.22;;;1.04;49.99
60061;BME280;45933;51.336;12.612;2023-03-01T00:16:26;101291.75;;;1.03;49.63
60061;BME280;45933;51.336;12.612;2023-03-01T00:18:54;101293.38;;;1.01;49.97
60061;BME280;45933;51.336;12.612;2023-03-01T00:21:20;101295.84;;;1.00;49.82
60061;BME280;45933;51.336;12.612;2023-03-01T00:23:46;101294.03;;;0.97;49.32
60061;BME280;45933;51.336;12.612;2023-03-01T00:26:14;101298.22;;;0.95;49.28
60061;BME280;45933;51.336;12.612;2023-03-01T00:28:40;101294.66;;;0.93;49.58
60061;BME280;45933;51.336;12.612;2023-03-01T00:31:09;101286.94;;;0.93;49.67
60061;BME280;45933;51.336;12.612;2023-03-01T00:33:35;101297.97;;;0.91;49.42
60061;BME280;45933;51.336;12.612;2023-03-01T00:36:01;101282.44;;;0.89;49.27
60061;BME280;45933;51.336;12.612;2023-03-01T00:38:26;101281.50;;;0.87;49.68
60061;BME280;45933;51.336;12.612;2023-03-01T00:40:52;101277.25;;;0.88;49.32
60061;BME280;45933;51.336;12.612;2023-03-01T00:43:17;101268.59;;;0.86;49.92
60061;BME280;45933;51.336;12.612;2023-03-01T00:45:43;101272.69;;;0.82;49.81
60061;BME280;45933;51.336;12.612;2023-03-01T00:48:08;101270.91;;;0.81;49.73
60061;BME280;45933;51.336;12.612;2023-03-01T00:50:33;101268.34;;;0.81;49.96
60061;BME280;45933;51.336;12.612;2023-03-01T00:52:59;101265.59;;;0.78;50.34
60061;BME280;45933;51.336;12.612;2023-03-01T00:55:24;101263.78;;;0.75;50.32
60061;BME280;45933;51.336;12.612;2023-03-01T00:57:50;101261.91;;;0.73;50.54
60061;BME280;45933;51.336;12.612;2023-03-01T01:00:16;101257.44;;;0.69;50.41
60061;BME280;45933;51.336;12.612;2023-03-01T01:02:41;101256.47;;;0.67;50.52
60061;BME280;45933;51.336;12.612;2023-03-01T01:05:07;101266.72;;;0.67;50.13
60061;BME280;45933;51.336;12.612;2023-03-01T01:07:33;101264.72;;;0.61;49.45
60061;BME280;45933;51.336;12.612;2023-03-01T01:09:58;101263.84;;;0.61;49.63
60061;BME280;45933;51.336;12.612;2023-03-01T01:12:23;101258.66;;;0.59;50.58
60061;BME280;45933;51.336;12.612;2023-03-01T01:14:48;101256.94;;;0.60;50.00
60061;BME280;45933;51.336;12.612;2023-03-01T01:17:14;101244.81;;;0.57;49.86
60061;BME280;45933;51.336;12.612;2023-03-01T01:19:39;101255.03;;;0.56;50.05
60061;BME280;45933;51.336;12.612;2023-03-01T01:22:04;101254.06;;;0.54;50.24
60061;BME280;45933;51.336;12.612;2023-03-01T01:24:30;101253.97;;;0.52;50.57
60061;BME280;45933;51.336;12.612;2023-03-01T01:26:55;101244.50;;;0.51;50.96
60061;BME280;45933;51.336;12.612;2023-03-01T01:29:21;101237.44;;;0.47;50.62
60061;BME280;45933;51.336;12.612;2023-03-01T01:31:46;101239.13;;;0.46;50.60
60061;BME280;45933;51.336;12.612;2023-03-01T01:34:16;101244.25;;;0.46;50.27
60061;BME280;45933;51.336;12.612;2023-03-01T01:36:43;101244.81;;;0.41;50.45
60061;BME280;45933;51.336;12.612;2023-03-01T01:39:08;101238.72;;;0.39;51.08
60061;BME280;45933;51.336;12.612;2023-03-01T01:41:39;101237.75;;;0.37;50.75
60061;BME280;45933;51.336;12.612;2023-03-01T01:44:17;101232.78;;;0.40;50.51
60061;BME280;45933;51.336;12.612;2023-03-01T01:46:47;101229.03;;;0.33;50.88
60061;BME280;45933;51.336;12.612;2023-03-01T01:49:25;101229.97;;;0.35;50.42
60061;BME280;45933;51.336;12.612;2023-03-01T01:51:59;101229.84;;;0.32;50.12
60061;BME280;45933;51.336;12.612;2023-03-01T01:54:32;101228.78;;;0.29;50.72
60061;BME280;45933;51.336;12.612;2023-03-01T01:57:04;101230.22;;;0.23;50.70
60061;BME280;45933;51.336;12.612;2023-03-01T01:59:32;101224.03;;;0.20;51.34
60061;BME280;45933;51.336;12.612;2023-03-01T02:02:00;101223.22;;;0.21;51.42
60061;BME280;45933;51.336;12.612;2023-03-01T02:04:27;101213.69;;;0.18;50.92
60061;BME280;45933;51.336;12.612;2023-03-01T02:07:06;101222.34;;;0.20;50.27
60061;BME280;45933;51.336;12.612;2023-03-01T02:09:35;101215.19;;;0.15;51.49
60061;BME280;45933;51.336;12.612;2023-03-01T02:12:01;101209.91;;;0.12;51.01
60061;BME280;45933;51.336;12.612;2023-03-01T02:14:27;101214.88;;;0.09;51.02
60061;BME280;45933;51.336;12.612;2023-03-01T02:16:52;101210.47;;;0.06;51.26
60061;BME280;45933;51.336;12.612;2023-03-01T02:19:31;101210.53;;;0.08;50.78
60061;BME280;45933;51.336;12.612;2023-03-01T02:22:22;101205.34;;;0.06;50.11
60061;BME280;45933;51.336;12.612;2023-03-01T02:25:03;101206.13;;;0.05;50.38
60061;BME280;45933;51.336;12.612;2023-03-01T02:27:42;101205.91;;;0.01;50.78
60061;BME280;45933;51.336;12.612;2023-03-01T02:30:11;101210.66;;;-0.06;51.53
60061;BME280;45933;51.336;12.612;2023-03-01T02:32:39;101215.72;;;-0.07;51.66
60061;BME280;45933;51.336;12.612;2023-03-01T02:35:10;101211.31;;;-0.10;52.15
60061;BME280;45933;51.336;12.612;2023-03-01T02:37:38;101212.88;;;-0.12;51.81
60061;BME280;45933;51.336;12.612;2023-03-01T02:40:09;101214.56;;;-0.12;51.51
60061;BME280;45933;51.336;12.612;2023-03-01T02:42:43;101205.13;;;-0.13;51.30
60061;BME280;45933;51.336;12.612;2023-03-01T02:45:11;101215.13;;;-0.18;51.54
60061;BME280;45933;51.336;12.612;2023-03-01T02:47:36;101212.47;;;-0.19;52.13
60061;BME280;45933;51.336;12.612;2023-03-01T02:50:02;101207.28;;;-0.21;52.33
60061;BME280;45933;51.336;12.612;2023-03-01T02:52:43;101214.25;;;-0.18;51.17
60061;BME280;45933;51.336;12.612;2023-03-01T02:55:12;101225.03;;;-0.24;51.77
60061;BME280;45933;51.336;12.612;2023-03-01T02:57:40;101224.16;;;-0.24;51.86
60061;BME280;45933;51.336;12.612;2023-03-01T03:00:13;101213.09;;;-0.23;51.74
60061;BME280;45933;51.336;12.612;2023-03-01T03:02:45;101212.91;;;-0.27;51.60
60061;BME280;45933;51.336;12.612;2023-03-01T03:05:23;101206.03;;;-0.28;52.03
60061;BME280;45933;51.336;12.612;2023-03-01T03:07:49;101205.06;;;-0.30;52.43
60061;BME280;45933;51.336;12.612;2023-03-01T03:10:24;101202.78;;;-0.25;51.42
60061;BME280;45933;51.336;12.612;2023-03-01T03:12:52;101195.63;;;-0.31;52.22
60061;BME280;45933;51.336;12.612;2023-03-01T03:15:17;101193.88;;;-0.32;52.18
60061;BME280;45933;51.336;12.612;2023-03-01T03:17:43;101193.75;;;-0.33;52.57
60061;BME280;45933;51.336;12.612;2023-03-01T03:20:11;101190.31;;;-0.34;52.71
60061;BME280;45933;51.336;12.612;2023-03-01T03:22:40;101187.75;;;-0.34;52.33
60061;BME280;45933;51.336;12.612;2023-03-01T03:25:07;101183.25;;;-0.38;52.55
60061;BME280;45933;51.336;12.612;2023-03-01T03:27:39;101187.50;;;-0.38;51.99
60061;BME280;45933;51.336;12.612;2023-03-01T03:30:07;101184.69;;;-0.43;52.39
60061;BME280;45933;51.336;12.612;2023-03-01T03:32:38;101189.66;;;-0.46;52.79
60061;BME280;45933;51.336;12.612;2023-03-01T03:35:05;101187.00;;;-0.47;52.68
60061;BME280;45933;51.336;12.612;2023-03-01T03:37:38;101178.53;;;-0.46;52.75
60061;BME280;45933;51.336;12.612;2023-03-01T03:40:22;101181.78;;;-0.49;52.52
60061;BME280;45933;51.336;12.612;2023-03-01T03:42:47;101173.94;;;-0.52;53.00
60061;BME280;45933;51.336;12.612;2023-03-01T03:45:13;101172.06;;;-0.55;52.47
60061;BME280;45933;51.336;12.612;2023-03-01T03:47:38;101169.44;;;-0.56;53.26
60061;BME280;45933;51.336;12.612;2023-03-01T03:50:04;101169.34;;;-0.58;52.92
60061;BME280;45933;51.336;12.612;2023-03-01T03:52:29;101170.13;;;-0.59;53.12
60061;BME280;45933;51.336;12.612;2023-03-01T03:54:55;101173.41;;;-0.61;52.97
60061;BME280;45933;51.336;12.612;2023-03-01T03:57:20;101159.53;;;-0.65;52.98
60061;BME280;45933;51.336;12.612;2023-03-01T03:59:46;101157.78;;;-0.66;53.56
60061;BME280;45933;51.336;12.612;2023-03-01T04:02:11;101156.91;;;-0.66;53.35
60061;BME280;45933;51.336;12.612;2023-03-01T04:04:36;101172.19;;;-0.68;53.61
60061;BME280;45933;51.336;12.612;2023-03-01T04:07:02;101173.88;;;-0.68;53.92
60061;BME280;45933;51.336;12.612;2023-03-01T04:09:27;101175.44;;;-0.70;53.51
60061;BME280;45933;51.336;12.612;2023-03-01T04:11:55;101181.38;;;-0.71;53.37
60061;BME280;45933;51.336;12.612;2023-03-01T04:14:20;101180.41;;;-0.73;53.48
60061;BME280;45933;51.336;12.612;2023-03-01T04:16:45;101177.75;;;-0.75;53.68
60061;BME280;45933;51.336;12.612;2023-03-01T04:19:11;101166.53;;;-0.77;53.48
60061;BME280;45933;51.336;12.612;2023-03-01T04:21:36;101169.78;;;-0.80;53.70
60061;BME280;45933;51.336;12.612;2023-03-01T04:24:02;101163.63;;;-0.83;53.95
60061;BME280;45933;51.336;12.612;2023-03-01T04:26:28;101159.31;;;-0.84;54.22
60061;BME280;45933;51.336;12.612;2023-03-01T04:28:54;101159.13;;;-0.87;54.07
60061;BME280;45933;51.336;12.612;2023-03-01T04:31:19;101161.59;;;-0.89;54.42
60061;BME280;45933;51.336;12.612;2023-03-01T04:33:48;101158.94;;;-0.90;54.33
60061;BME280;45933;51.336;12.612;2023-03-01T04:36:17;101159.59;;;-0.94;54.26
60061;BME280;45933;51.336;12.612;2023-03-01T04:38:43;101159.47;;;-0.96;54.69
60061;BME280;45933;51.336;12.612;2023-03-01T04:41:13;101165.38;;;-0.97;54.01
60061;BME280;45933;51.336;12.612;2023-03-01T04:43:38;101177.22;;;-0.99;53.65
60061;BME280;45933;51.336;12.612;2023-03-01T04:46:08;101172.91;;;-1.00;54.03
60061;BME280;45933;51.336;12.612;2023-03-01T04:48:38;101167.78;;;-1.00;54.20
60061;BME280;45933;51.336;12.612;2023-03-01T04:51:05;101171.75;;;-1.05;54.42
60061;BME280;45933;51.336;12.612;2023-03-01T04:53:31;101169.09;;;-1.07;54.43
60061;BME280;45933;51.336;12.612;2023-03-01T04:55:58;101163.00;;;-1.09;54.39
60061;BME280;45933;51.336;12.612;2023-03-01T04:58:25;101163.00;;;-1.09;54.12
60061;BME280;45933;51.336;12.612;2023-03-01T05:00:51;101157.81;;;-1.10;54.50
60061;BME280;45933;51.336;12.612;2023-03-01T05:03:17;101167.06;;;-1.12;54.28
60061;BME280;45933;51.336;12.612;2023-03-01T05:05:44;101163.63;;;-1.13;54.79
60061;BME280;45933;51.336;12.612;2023-03-01T05:08:09;101168.66;;;-1.14;54.64
60061;BME280;45933;51.336;12.612;2023-03-01T05:10:46;101164.41;;;-1.14;54.78
60061;BME280;45933;51.336;12.612;2023-03-01T05:13:12;101160.09;;;-1.15;54.33
60061;BME280;45933;51.336;12.612;2023-03-01T05:15:40;101157.44;;;-1.16;54.55
60061;BME280;45933;51.336;12.612;2023-03-01T05:18:05;101166.78;;;-1.17;55.05
60061;BME280;45933;51.336;12.612;2023-03-01T05:20:37;101159.81;;;-1.19;54.97
60061;BME280;45933;51.336;12.612;2023-03-01T05:23:02;101158.06;;;-1.20;55.17
60061;BME280;45933;51.336;12.612;2023-03-01T05:25:31;101157.06;;;-1.22;55.04
60061;BME280;45933;51.336;12.612;2023-03-01T05:27:58;101155.22;;;-1.25;54.36
60061;BME280;45933;51.336;12.612;2023-03-01T05:30:23;101157.72;;;-1.26;55.01
60061;BME280;45933;51.336;12.612;2023-03-01T05:32:50;101149.03;;;-1.28;55.36
60061;BME280;45933;51.336;12.612;2023-03-01T05:35:21;101150.66;;;-1.30;55.37
60061;BME280;45933;51.336;12.612;2023-03-01T05:37:48;101156.44;;;-1.33;55.63
60061;BME280;45933;51.336;12.612;2023-03-01T05:40:16;101146.31;;;-1.32;55.64
60061;BME280;45933;51.336;12.612;2023-03-01T05:43:00;101159.34;;;-1.27;54.33
60061;BME280;45933;51.336;12.612;2023-03-01T05:45:26;101157.25;;;-1.34;55.18
60061;BME280;45933;51.336;12.612;2023-03-01T05:47:52;101159.72;;;-1.36;54.92
60061;BME280;45933;51.336;12.612;2023-03-01T05:50:29;101160.88;;;-1.30;54.74
60061;BME280;45933;51.336;12.612;2023-03-01T05:52:59;101166.59;;;-1.35;55.38
60061;BME280;45933;51.336;12.612;2023-03-01T05:55:24;101165.44;;;-1.40;54.94
60061;BME280;45933;51.336;12.612;2023-03-01T05:57:50;101163.59;;;-1.42;54.90
60061;BME280;45933;51.336;12.612;2023-03-01T06:00:18;101167.03;;;-1.42;55.19
60061;BME280;45933;51.336;12.612;2023-03-01T06:02:44;101166.91;;;-1.43;54.97
60061;BME280;45933;51.336;12.612;2023-03-01T06:05:11;101175.38;;;-1.44;55.81
60061;BME280;45933;51.336;12.612;2023-03-01T06:07:37;101176.19;;;-1.45;55.67
60061;BME280;45933;51.336;12.612;2023-03-01T06:10:03;101166.84;;;-1.45;56.04
60061;BME280;45933;51.336;12.612;2023-03-01T06:12:34;101172.91;;;-1.43;55.03
60061;BME280;45933;51.336;12.612;2023-03-01T06:15:00;101170.13;;;-1.47;55.94
60061;BME280;45933;51.336;12.612;2023-03-01T06:17:26;101167.63;;;-1.46;55.79
60061;BME280;45933;51.336;12.612;2023-03-01T06:19:53;101170.13;;;-1.47;55.62
60061;BME280;45933;51.336;12.612;2023-03-01T06:22:18;101171.88;;;-1.46;55.47
60061;BME280;45933;51.336;12.612;2023-03-01T06:24:44;101164.19;;;-1.46;55.61
60061;BME280;45933;51.336;12.612;2023-03-01T06:27:09;101173.63;;;-1.45;56.10
60061;BME280;45933;51.336;12.612;2023-03-01T06:29:34;101169.41;;;-1.45;55.55
60061;BME280;45933;51.336;12.612;2023-03-01T06:32:00;101173.72;;;-1.44;55.55
60061;BME280;45933;51.336;12.612;2023-03-01T06:34:25;101167.91;;;-1.41;55.76
60061;BME280;45933;51.336;12.612;2023-03-01T06:36:50;101168.78;;;-1.41;56.10
60061;BME280;45933;51.336;12.612;2023-03-01T06:39:15;101163.84;;;-1.38;56.11
60061;BME280;45933;51.336;12.612;2023-03-01T06:41:42;101167.41;;;-1.36;56.06
60061;BME280;45933;51.336;12.612;2023-03-01T06:44:07;101164.22;;;-1.32;56.35
60061;BME280;45933;51.336;12.612;2023-03-01T06:46:33;101173.81;;;-1.27;56.29
60061;BME280;45933;51.336;12.612;2023-03-01T06:48:58;101167.16;;;-1.25;56.21
60061;BME280;45933;51.336;12.612;2023-03-01T06:51:23;101166.50;;;-1.21;56.24
60061;BME280;45933;51.336;12.612;2023-03-01T06:53:49;101171.91;;;-1.17;56.59
60061;BME280;45933;51.336;12.612;2023-03-01T06:56:14;101169.53;;;-1.14;56.63
60061;BME280;45933;51.336;12.612;2023-03-01T06:58:40;101169.81;;;-1.09;56.17
60061;BME280;45933;51.336;12.612;2023-03-01T07:01:09;101170.16;;;-1.03;56.46
60061;BME280;45933;51.336;12.612;2023-03-01T07:03:34;101159.31;;;-0.99;56.56
60061;BME280;45933;51.336;12.612;2023-03-01T07:06:00;101165.59;;;-0.94;56.52
60061;BME280;45933;51.336;12.612;2023-03-01T07:08:25;101160.72;;;-0.89;56.56
60061;BME280;45933;51.336;12.612;2023-03-01T07:10:59;101163.03;;;-0.79;55.98
60061;BME280;45933;51.336;12.612;2023-03-01T07:13:27;101157.97;;;-0.77;56.57
60061;BME280;45933;51.336;12.612;2023-03-01T07:15:52;101163.44;;;-0.71;56.75
60061;BME280;45933;51.336;12.612;2023-03-01T07:18:17;101162.03;;;-0.66;56.25
60061;BME280;45933;51.336;12.612;2023-03-01T07:20:42;101169.16;;;-0.61;56.57
60061;BME280;45933;51.336;12.612;2023-03-01T07:23:08;101159.19;;;-0.56;56.26
60061;BME280;45933;51.336;12.612;2023-03-01T07:25:33;101157.84;;;-0.49;56.73
60061;BME280;45933;51.336;12.612;2023-03-01T07:27:58;101153.88;;;-0.44;57.06
60061;BME280;45933;51.336;12.612;2023-03-01T07:30:24;101149.94;;;-0.38;56.72
60061;BME280;45933;51.336;12.612;2023-03-01T07:32:52;101146.06;;;-0.31;56.29
60061;BME280;45933;51.336;12.612;2023-03-01T07:35:18;101148.16;;;-0.24;56.66
60061;BME280;45933;51.336;12.612;2023-03-01T07:37:43;101148.50;;;-0.18;56.64
60061;BME280;45933;51.336;12.612;2023-03-01T07:40:10;101152.38;;;-0.10;56.17
60061;BME280;45933;51.336;12.612;2023-03-01T07:42:35;101151.88;;;-0.03;56.99
60061;BME280;45933;51.336;12.612;2023-03-01T07:45:00;101159.97;;;0.05;57.23
60061;BME280;45933;51.336;12.612;2023-03-01T07:47:26;101151.91;;;0.14;56.65
60061;BME280;45933;51.336;12.612;2023-03-01T07:49:51;101146.41;;;0.22;56.50
60061;BME280;45933;51.336;12.612;2023-03-01T07:52:16;101143.34;;;0.30;57.08
60061;BME280;45933;51.336;12.612;2023-03-01T07:54:44;101142.22;;;0.41;56.72
60061;BME280;45933;51.336;12.612;2023-03-01T07:57:10;101149.34;;;0.46;57.00
60061;BME280;45933;51.336;12.612;2023-03-01T07:59:35;101148.13;;;0.56;56.59
60061;BME280;45933;51.336;12.612;2023-03-01T08:02:01;101149.44;;;0.64;55.96
60061;BME280;45933;51.336;12.612;2023-03-01T08:04:26;101146.28;;;0.70;56.83
60061;BME280;45933;51.336;12.612;2023-03-01T08:06:52;101141.69;;;0.81;56.10
60061;BME280;45933;51.336;12.612;2023-03-01T08:09:18;101141.25;;;0.89;56.93
60061;BME280;45933;51.336;12.612;2023-03-01T08:11:43;101143.41;;;0.98;56.31
60061;BME280;45933;51.336;12.612;2023-03-01T08:14:09;101138.88;;;1.10;56.60
60061;BME280;45933;51.336;12.612;2023-03-01T08:16:35;101140.16;;;1.18;56.52
60061;BME280;45933;51.336;12.612;2023-03-01T08:19:10;101140.91;;;1.34;56.23
60061;BME280;45933;51.336;12.612;2023-03-01T08:21:37;101137.16;;;1.45;56.35
60061;BME280;45933;51.336;12.612;2023-03-01T08:24:04;101136.13;;;1.59;56.78
60061;BME280;45933;51.336;12.612;2023-03-01T08:26:30;101133.00;;;1.84;57.47
60061;BME280;45933;51.336;12.612;2023-03-01T08:28:55;101130.75;;;2.29;57.13
60061;BME280;45933;51.336;12.612;2023-03-01T08:31:24;101132.44;;;2.88;56.71
60061;BME280;45933;51.336;12.612;2023-03-01T08:33:53;101128.34;;;3.56;54.69
60061;BME280;45933;51.336;12.612;2023-03-01T08:36:23;101118.22;;;4.29;52.98
60061;BME280;45933;51.336;12.612;2023-03-01T08:38:49;101115.84;;;5.10;53.25
60061;BME280;45933;51.336;12.612;2023-03-01T08:41:15;101106.13;;;5.84;50.60
60061;BME280;45933;51.336;12.612;2023-03-01T08:43:40;101102.31;;;6.62;50.26
60061;BME280;45933;51.336;12.612;2023-03-01T08:46:06;101098.94;;;7.33;49.46
60061;BME280;45933;51.336;12.612;2023-03-01T08:48:31;101093.50;;;8.00;47.63
60061;BME280;45933;51.336;12.612;2023-03-01T08:50:56;101095.59;;;8.60;44.55
60061;BME280;45933;51.336;12.612;2023-03-01T08:53:22;101089.69;;;9.19;44.00
60061;BME280;45933;51.336;12.612;2023-03-01T08:55:47;101086.94;;;9.68;43.29
60061;BME280;45933;51.336;12.612;2023-03-01T08:58:12;101084.25;;;10.26;44.13
60061;BME280;45933;51.336;12.612;2023-03-01T09:00:38;101083.88;;;10.74;42.16
60061;BME280;45933;51.336;12.612;2023-03-01T09:03:03;101080.81;;;11.20;40.54
60061;BME280;45933;51.336;12.612;2023-03-01T09:05:32;101075.88;;;11.61;39.68
60061;BME280;45933;51.336;12.612;2023-03-01T09:07:57;101074.38;;;12.04;39.43
60061;BME280;45933;51.336;12.612;2023-03-01T09:10:23;101066.69;;;12.47;38.51
60061;BME280;45933;51.336;12.612;2023-03-01T09:12:48;101068.50;;;12.93;37.95
60061;BME280;45933;51.336;12.612;2023-03-01T09:15:13;101060.66;;;13.26;36.85
60061;BME280;45933;51.336;12.612;2023-03-01T09:17:39;101058.81;;;13.70;36.48
60061;BME280;45933;51.336;12.612;2023-03-01T09:20:04;101057.84;;;14.00;35.03
60061;BME280;45933;51.336;12.612;2023-03-01T09:22:33;101055.91;;;14.37;35.06
60061;BME280;45933;51.336;12.612;2023-03-01T09:24:58;101054.03;;;14.60;35.00
60061;BME280;45933;51.336;12.612;2023-03-01T09:27:24;101059.88;;;15.01;34.47
60061;BME280;45933;51.336;12.612;2023-03-01T09:29:50;101052.63;;;15.29;33.54
60061;BME280;45933;51.336;12.612;2023-03-01T09:32:15;101051.56;;;15.48;33.05
60061;BME280;45933;51.336;12.612;2023-03-01T09:34:41;101039.06;;;15.73;32.33
60061;BME280;45933;51.336;12.612;2023-03-01T09:37:26;101040.53;;;15.95;31.01
60061;BME280;45933;51.336;12.612;2023-03-01T09:39:52;101039.50;;;16.07;30.22
60061;BME280;45933;51.336;12.612;2023-03-01T09:42:17;101039.28;;;16.26;30.15
60061;BME280;45933;51.336;12.612;2023-03-01T09:44:54;101039.88;;;16.46;29.94
60061;BME280;45933;51.336;12.612;2023-03-01T09:47:34;101043.88;;;16.73;32.01
60061;BME280;45933;51.336;12.612;2023-03-01T09:52:40;101038.22;;;16.96;28.87
60061;BME280;45933;51.336;12.612;2023-03-01T09:55:21;101021.53;;;16.98;28.02
60061;BME280;45933;51.336;12.612;2023-03-01T09:58:21;101027.41;;;17.13;28.34
60061;BME280;45933;51.336;12.612;2023-03-01T10:00:42;101025.25;;;17.36;28.18
60061;BME280;45933;51.336;12.612;2023-03-01T10:03:34;101022.06;;;17.64;28.11
60061;BME280;45933;51.336;12.612;2023-03-01T10:06:16;101024.09;;;17.49;25.50
60061;BME280;45933;51.336;12.612;2023-03-01T10:08:54;101029.84;;;17.73;27.17
60061;BME280;45933;51.336;12.612;2023-03-01T10:11:24;101023.09;;;17.57;25.52
60061;BME280;45933;51.336;12.612;2023-03-01T10:13:59;101032.00;;;17.51;25.21
60061;BME280;45933;51.336;12.612;2023-03-01T10:16:46;101026.25;;;17.77;26.55
60061;BME280;45933;51.336;12.612;2023-03-01T10:19:27;101031.53;;;17.77;26.71
60061;BME280;45933;51.336;12.612;2023-03-01T10:21:58;101023.47;;;17.82;25.55
60061;BME280;45933;51.336;12.612;2023-03-01T10:24:35;101017.19;;;17.89;25.53
60061;BME280;45933;51.336;12.612;2023-03-01T10:27:05;101020.75;;;17.88;24.14
60061;BME280;45933;51.336;12.612;2023-03-01T10:29:54;101020.97;;;17.75;23.20
60061;BME280;45933;51.336;12.612;2023-03-01T10:32:23;101017.25;;;17.86;24.42
60061;BME280;45933;51.336;12.612;2023-03-01T10:34:49;101023.53;;;17.80;23.87
60061;BME280;45933;51.336;12.612;2023-03-01T10:37:19;101021.31;;;18.02;24.41
60061;BME280;45933;51.336;12.612;2023-03-01T10:40:06;101022.13;;;18.06;24.42
60061;BME280;45933;51.336;12.612;2023-03-01T10:42:39;101015.03;;;18.08;23.93
60061;BME280;45933;51.336;12.612;2023-03-01T10:45:17;101021.47;;;18.35;25.01
60061;BME280;45933;51.336;12.612;2023-03-01T10:48:20;101010.28;;;18.61;25.52
60061;BME280;45933;51.336;12.612;2023-03-01T10:50:51;101011.31;;;18.55;24.08
60061;BME280;45933;51.336;12.612;2023-03-01T10:55:59;101004.88;;;19.02;24.20
60061;BME280;45933;51.336;12.612;2023-03-01T10:58:25;101005.22;;;18.90;22.87
60061;BME280;45933;51.336;12.612;2023-03-01T11:00:59;100999.59;;;19.35;23.72
60061;BME280;45933;51.336;12.612;2023-03-01T11:03:34;101002.06;;;19.43;23.32
60061;BME280;45933;51.336;12.612;2023-03-01T11:08:38;100998.59;;;19.72;23.66
60061;BME280;45933;51.336;12.612;2023-03-01T11:11:16;100997.22;;;19.90;23.13
60061;BME280;45933;51.336;12.612;2023-03-01T11:13:55;100992.47;;;20.01;23.57
60061;BME280;45933;51.336;12.612;2023-03-01T11:16:31;100984.88;;;20.18;22.91
60061;BME280;45933;51.336;12.612;2023-03-01T11:21:54;100987.22;;;20.57;23.27
60061;BME280;45933;51.336;12.612;2023-03-01T11:24:29;100983.81;;;20.53;21.81
60061;BME280;45933;51.336;12.612;2023-03-01T11:26:55;100983.97;;;20.75;22.65
60061;BME280;45933;51.336;12.612;2023-03-01T11:29:45;100984.88;;;20.74;21.70
60061;BME280;45933;51.336;12.612;2023-03-01T11:32:13;100978.94;;;20.93;22.40
60061;BME280;45933;51.336;12.612;2023-03-01T11:34:57;100978.47;;;21.06;21.96
60061;BME280;45933;51.336;12.612;2023-03-01T11:37:36;100982.63;;;21.15;21.75
60061;BME280;45933;51.336;12.612;2023-03-01T11:40:26;100980.81;;;21.40;23.27
60061;BME280;45933;51.336;12.612;2023-03-01T11:48:44;100958.25;;;21.77;22.21
60061;BME280;45933;51.336;12.612;2023-03-01T11:51:23;100958.75;;;21.87;21.69
60061;BME280;45933;51.336;12.612;2023-03-01T11:54:04;100949.59;;;21.96;22.15
60061;BME280;45933;51.336;12.612;2023-03-01T11:56:35;100940.94;;;21.90;20.75
60061;BME280;45933;51.336;12.612;2023-03-01T12:02:40;100939.25;;;22.11;21.43
60061;BME280;45933;51.336;12.612;2023-03-01T12:08:17;100932.03;;;21.91;19.96
60061;BME280;45933;51.336;12.612;2023-03-01T12:33:31;100916.25;;;21.88;19.79
60061;BME280;45933;51.336;12.612;2023-03-01T12:36:14;100907.13;;;21.96;19.90
60061;BME280;45933;51.336;12.612;2023-03-01T12:41:55;100899.47;;;22.10;19.79
60061;BME280;45933;51.336;12.612;2023-03-01T12:49:48;100885.81;;;21.97;18.83
60061;BME280;45933;51.336;12.612;2023-03-01T12:52:49;100875.41;;;22.14;20.21
60061;BME280;45933;51.336;12.612;2023-03-01T12:55:29;100878.41;;;22.05;19.28
60061;BME280;45933;51.336;12.612;2023-03-01T13:06:57;100856.34;;;22.03;19.87
60061;BME280;45933;51.336;12.612;2023-03-01T13:12:01;100857.22;;;22.04;19.19
60061;BME280;45933;51.336;12.612;2023-03-01T13:14:34;100854.63;;;22.02;19.86
60061;BME280;45933;51.336;12.612;2023-03-01T13:17:00;100856.53;;;21.99;18.95
60061;BME280;45933;51.336;12.612;2023-03-01T13:19:27;100863.41;;;22.04;19.33
60061;BME280;45933;51.336;12.612;2023-03-01T13:21:54;100869.59;;;22.05;18.87
60061;BME280;45933;51.336;12.612;2023-03-01T13:24:27;100858.97;;;22.05;19.22
60061;BME280;45933;51.336;12.612;2023-03-01T13:29:46;100855.03;;;22.15;19.63
60061;BME280;45933;51.336;12.612;2023-03-01T13:32:20;100853.59;;;22.06;18.86
60061;BME280;45933;51.336;12.612;2023-03-01T13:34:48;100855.88;;;21.93;18.60
60061;BME280;45933;51.336;12.612;2023-03-01T13:37:23;100857.28;;;22.02;17.95
60061;BME280;45933;51.336;12.612;2023-03-01T13:39:51;100853.78;;;22.02;18.99
60061;BME280;45933;51.336;12.612;2023-03-01T13:42:35;100850.53;;;22.17;18.53
60061;BME280;45933;51.336;12.612;2023-03-01T13:45:04;100852.16;;;21.98;17.99
60061;BME280;45933;51.336;12.612;2023-03-01T13:47:30;100850.25;;;22.01;17.95
60061;BME280;45933;51.336;12.612;2023-03-01T13:50:01;100838.09;;;21.96;17.61
60061;BME280;45933;51.336;12.612;2023-03-01T13:52:48;100842.09;;;22.06;18.03
60061;BME280;45933;51.336;12.612;2023-03-01T13:55:30;100843.94;;;22.04;18.41
60061;BME280;45933;51.336;12.612;2023-03-01T13:57:59;100843.53;;;21.92;18.08
60061;BME280;45933;51.336;12.612;2023-03-01T14:00:36;100845.81;;;22.02;18.86
60061;BME280;45933;51.336;12.612;2023-03-01T14:03:09;100839.91;;;21.95;18.12